Time;durP1;ratioP1;P1;durP2;ratioP2;P2;SDS_P1;SDS_P2;PMS_P1;PMS_P2;Temp;Humidity;BMP_temperature;BMP_pressure;BME280_temperature;BME280_humidity;BME280_pressure;Samples;Min_cycle;Max_cycle;Signal;HPM_P1;HPM_P2
2022/09/14 00:01:14;;;;;;;13.67;8.17;;;;;;;40.07;35.32;101077.91;6158734;23;20468;-76
2022/09/14 00:03:41;;;;;;;15.77;6.40;;;;;;;40.38;35.24;101077.00;6158395;23;20439;-77
2022/09/14 00:06:09;;;;;;;13.13;7.47;;;;;;;40.47;34.63;101077.81;6158636;23;20369;-77
2022/09/14 00:08:36;;;;;;;18.70;9.33;;;;;;;40.33;34.69;101069.00;6158587;23;20376;-77
2022/09/14 00:11:05;;;;;;;14.80;8.30;;;;;;;40.35;34.80;101067.56;6158573;23;20372;-76
2022/09/14 00:13:32;;;;;;;18.03;6.90;;;;;;;40.40;34.85;101064.72;6158513;23;20396;-77
2022/09/14 00:16:03;;;;;;;15.60;8.03;;;;;;;40.69;35.20;101061.38;6158690;23;20455;-77
2022/09/14 00:18:30;;;;;;;24.90;11.03;;;;;;;40.64;34.69;101067.00;6158311;23;20380;-77
2022/09/14 00:21:01;;;;;;;19.77;9.60;;;;;;;40.63;34.51;101068.09;6185345;23;20361;-76
2022/09/14 00:23:27;;;;;;;14.93;8.67;;;;;;;40.69;34.73;101069.53;6158563;23;20377;-76
2022/09/14 00:25:53;;;;;;;16.90;7.07;;;;;;;40.36;35.36;101062.94;6158534;23;20377;-78
2022/09/14 00:28:19;;;;;;;16.77;7.87;;;;;;;40.57;35.16;101069.38;6158571;23;20385;-78
2022/09/14 00:30:46;;;;;;;21.10;8.80;;;;;;;40.58;34.57;101060.13;6158969;23;20380;-76
2022/09/14 00:33:12;;;;;;;14.47;7.63;;;;;;;40.61;34.69;101064.91;6185148;23;20360;-77
2022/09/14 00:35:39;;;;;;;15.00;9.00;;;;;;;40.78;34.59;101054.00;6158526;23;20379;-78
2022/09/14 00:38:06;;;;;;;15.40;8.50;;;;;;;40.65;35.06;101049.56;6158329;23;20447;-77
2022/09/14 00:40:32;;;;;;;15.93;8.20;;;;;;;40.42;35.09;101048.88;6158302;23;20420;-77
2022/09/14 00:42:58;;;;;;;19.43;7.80;;;;;;;40.45;34.48;101036.53;6185116;23;20383;-76
2022/09/14 00:45:25;;;;;;;16.90;6.47;;;;;;;40.60;34.63;101041.53;6159055;23;20467;-76
2022/09/14 00:47:52;;;;;;;14.30;9.50;;;;;;;40.50;34.56;101031.78;6158430;23;20369;-76
2022/09/14 00:50:19;;;;;;;27.40;8.80;;;;;;;40.52;35.12;101039.63;6158195;23;20371;-76
2022/09/14 00:52:49;;;;;;;24.97;9.80;;;;;;;40.42;34.71;101032.56;6158292;23;20834;-77
2022/09/14 00:55:22;;;;;;;15.60;9.50;;;;;;;40.48;35.09;101027.78;6158114;23;20733;-76
2022/09/14 00:57:51;;;;;;;18.63;7.90;;;;;;;40.12;35.82;101023.41;6158225;23;20746;-76
2022/09/14 01:00:24;;;;;;;11.23;6.97;;;;;;;40.12;35.87;101019.91;6184823;23;20415;-76
2022/09/14 01:02:50;;;;;;;12.60;6.47;;;;;;;40.33;35.54;101022.78;6158308;23;20920;-77
2022/09/14 01:05:17;;;;;;;18.83;9.27;;;;;;;40.41;35.17;101016.56;6158180;23;20447;-76
2022/09/14 01:08:02;;;;;;;13.30;7.57;;;;;;;40.52;34.83;101017.88;6158216;23;20373;-76
2022/09/14 01:10:46;;;;;;;29.97;10.30;;;;;;;40.53;34.72;101009.41;6158072;23;20412;-76
2022/09/14 01:13:27;;;;;;;17.80;7.80;;;;;;;40.46;34.78;101013.69;6183099;23;20395;-77
2022/09/14 01:16:12;;;;;;;13.60;9.63;;;;;;;40.27;35.43;101011.31;6158225;23;20423;-76
2022/09/14 01:18:49;;;;;;;19.77;9.03;;;;;;;40.41;34.91;101003.78;6158020;23;20848;-78
2022/09/14 01:21:27;;;;;;;24.23;8.47;;;;;;;40.37;34.96;101004.72;6158205;23;20860;-78
2022/09/14 01:24:04;;;;;;;19.47;8.33;;;;;;;40.60;34.75;101002.69;6184584;23;20861;-78
2022/09/14 01:27:00;;;;;;;19.30;9.90;;;;;;;40.69;34.60;101006.97;6158124;23;20475;-78
2022/09/14 01:29:35;;;;;;;19.93;8.53;;;;;;;40.47;35.09;101010.69;6133367;23;20426;-77
2022/09/14 01:32:03;;;;;;;24.10;8.50;;;;;;;40.48;34.77;101003.31;6157907;23;20420;-76
2022/09/14 01:34:39;;;;;;;15.77;7.77;;;;;;;40.52;34.89;101002.38;6159611;23;20474;-77
2022/09/14 01:37:14;;;;;;;18.50;7.57;;;;;;;40.68;34.72;100999.94;6160015;23;20519;-76
2022/09/14 01:39:49;;;;;;;14.83;6.80;;;;;;;40.73;34.57;100996.25;6160024;23;20434;-76
2022/09/14 01:42:18;;;;;;;11.77;6.80;;;;;;;40.63;34.17;100980.28;6160129;23;20891;-76
2022/09/14 01:44:51;;;;;;;11.30;6.07;;;;;;;40.53;34.81;100981.41;6160119;23;20869;-76
2022/09/14 01:47:39;;;;;;;17.90;7.43;;;;;;;40.74;34.58;100982.34;6159750;23;20470;-76
2022/09/14 01:50:21;;;;;;;28.07;11.07;;;;;;;40.68;34.38;100972.75;6159895;23;20407;-76
2022/09/14 01:53:04;;;;;;;18.80;7.80;;;;;;;40.71;34.64;100968.59;6159962;23;20411;-77
2022/09/14 01:56:03;;;;;;;15.60;7.37;;;;;;;40.61;34.36;100972.44;6160146;23;20454;-78
2022/09/14 01:58:32;;;;;;;18.60;10.17;;;;;;;40.79;34.08;100973.22;6159576;23;20458;-78
2022/09/14 02:01:01;;;;;;;10.83;6.67;;;;;;;40.87;34.00;100979.75;6160105;23;20407;-78
2022/09/14 02:03:36;;;;;;;16.03;7.80;;;;;;;40.86;34.08;100978.94;6186194;23;20424;-77
2022/09/14 02:06:15;;;;;;;19.17;10.90;;;;;;;40.84;34.62;100983.94;6186649;23;20356;-77
2022/09/14 02:08:42;;;;;;;23.40;8.63;;;;;;;40.50;34.52;100971.16;6159841;23;20391;-77
2022/09/14 02:11:08;;;;;;;20.90;9.93;;;;;;;40.62;34.65;100965.06;6159654;23;20464;-76
2022/09/14 02:13:34;;;;;;;20.87;8.73;;;;;;;40.60;34.52;100964.63;6186603;23;20357;-77
2022/09/14 02:16:00;;;;;;;16.90;7.40;;;;;;;40.73;34.50;100964.41;6159625;23;20387;-76
2022/09/14 02:18:27;;;;;;;15.33;6.10;;;;;;;40.37;34.99;100967.47;6186422;23;20396;-76
2022/09/14 02:20:58;;;;;;;16.20;6.90;;;;;;;40.40;35.26;100958.69;6186404;23;20360;-76
2022/09/14 02:23:24;;;;;;;14.40;7.43;;;;;;;40.18;35.33;100956.94;6159680;23;20395;-78
2022/09/14 02:25:51;;;;;;;15.40;7.30;;;;;;;39.95;35.49;100952.72;6159499;23;20388;-78
2022/09/14 02:28:17;;;;;;;18.30;8.30;;;;;;;40.21;34.78;100955.50;6159649;23;20896;-77
2022/09/14 02:31:04;;;;;;;23.70;7.53;;;;;;;40.13;34.86;100957.09;6159530;23;20408;-77
2022/09/14 02:33:47;;;;;;;13.33;6.00;;;;;;;39.61;35.55;100956.19;6159663;23;20377;-77
2022/09/14 02:36:44;;;;;;;14.80;5.40;;;;;;;39.94;35.38;100951.94;6159586;23;20391;-76
2022/09/14 02:39:33;;;;;;;21.30;9.40;;;;;;;39.96;35.30;100966.00;6100597;23;20482;-78
2022/09/14 02:42:23;;;;;;;12.20;7.73;;;;;;;39.79;35.34;100944.25;6159665;23;20431;-78
2022/09/14 02:45:03;;;;;;;16.83;6.87;;;;;;;39.71;35.80;100947.72;6158825;23;20416;-76
2022/09/14 02:47:57;;;;;;;17.53;6.83;;;;;;;39.86;35.50;100941.06;6159529;23;20387;-76
2022/09/14 02:50:32;;;;;;;18.50;8.83;;;;;;;40.14;34.89;100947.00;6144027;23;20383;-76
2022/09/14 02:53:06;;;;;;;17.87;7.53;;;;;;;39.88;35.29;100942.34;6159328;23;20789;-76
2022/09/14 02:55:41;;;;;;;20.07;8.63;;;;;;;39.93;35.34;100944.91;6186341;23;20364;-77
2022/09/14 02:58:12;;;;;;;15.07;7.40;;;;;;;40.13;34.65;100948.94;6159240;23;20384;-76
2022/09/14 03:00:45;;;;;;;21.80;7.47;;;;;;;39.84;35.37;100951.41;6159172;23;20435;-77
2022/09/14 03:03:14;;;;;;;19.53;9.20;;;;;;;39.77;35.74;100954.59;6159211;23;20447;-76
2022/09/14 03:05:40;;;;;;;23.53;10.70;;;;;;;39.92;35.82;100945.22;6159252;23;20728;-77
2022/09/14 03:08:09;;;;;;;24.47;13.90;;;;;;;39.88;35.66;100945.03;6159255;23;20387;-76
2022/09/14 03:10:35;;;;;;;21.17;11.70;;;;;;;39.94;35.61;100948.41;6159214;23;20377;-77
2022/09/14 03:13:02;;;;;;;15.87;9.30;;;;;;;39.40;36.25;100954.00;6159374;23;20860;-76
2022/09/14 03:15:28;;;;;;;22.80;10.77;;;;;;;39.28;36.30;100948.38;6159152;23;20378;-76
2022/09/14 03:17:54;;;;;;;17.30;8.27;;;;;;;39.63;36.16;100952.03;6159278;23;20380;-76
2022/09/14 03:20:23;;;;;;;15.90;7.03;;;;;;;39.51;36.44;100951.81;6186214;23;20487;-76
2022/09/14 03:22:50;;;;;;;20.50;7.70;;;;;;;39.22;36.91;100965.91;6159054;23;20829;-78
2022/09/14 03:25:17;;;;;;;17.80;7.40;;;;;;;39.37;36.82;100970.13;6159164;23;20722;-78
2022/09/14 03:27:51;;;;;;;12.80;8.47;;;;;;;39.88;35.91;100976.84;6158955;23;20919;-77
2022/09/14 03:30:18;;;;;;;24.10;8.63;;;;;;;39.54;36.78;100981.06;6134635;23;20463;-76
2022/09/14 03:32:45;;;;;;;14.70;7.93;;;;;;;39.70;36.45;100976.00;6159091;23;20384;-76
2022/09/14 03:35:11;;;;;;;18.10;8.33;;;;;;;39.14;37.11;100981.00;6159695;23;20365;-76
2022/09/14 03:37:39;;;;;;;11.33;7.80;;;;;;;39.24;37.27;100969.13;6159149;23;20899;-76
2022/09/14 03:40:07;;;;;;;21.30;9.73;;;;;;;39.80;36.40;100973.00;6158877;23;20439;-75
2022/09/14 03:42:34;;;;;;;16.37;8.73;;;;;;;39.74;36.53;100977.78;6185846;23;20364;-77
2022/09/14 03:45:00;;;;;;;20.23;8.97;;;;;;;39.74;35.98;100977.78;6158760;23;20412;-75
2022/09/14 03:47:26;;;;;;;13.67;8.60;;;;;;;39.33;36.88;100980.81;6159044;23;20380;-76
2022/09/14 03:49:53;;;;;;;17.63;10.80;;;;;;;39.30;36.91;100975.22;6185615;23;20388;-76
2022/09/14 03:52:19;;;;;;;14.33;8.60;;;;;;;39.45;36.80;100978.28;6183636;23;20412;-76
2022/09/14 03:54:45;;;;;;;13.70;9.50;;;;;;;39.43;36.75;100983.25;6158791;23;20395;-76
2022/09/14 03:57:11;;;;;;;15.87;7.77;;;;;;;39.51;36.74;100989.81;6158437;23;20396;-78
2022/09/14 03:59:37;;;;;;;16.30;8.90;;;;;;;39.60;36.57;100981.72;6158980;23;20506;-78
2022/09/14 04:02:03;;;;;;;19.63;8.40;;;;;;;39.31;36.86;100980.31;6185381;23;20431;-76
2022/09/14 04:04:29;;;;;;;19.23;8.27;;;;;;;39.71;36.46;100981.13;6158606;23;20380;-76
2022/09/14 04:06:55;;;;;;;15.50;8.47;;;;;;;39.39;36.83;100978.75;6158523;23;20478;-78
2022/09/14 04:09:21;;;;;;;17.57;8.63;;;;;;;39.54;36.39;100983.78;6158769;23;20453;-79
2022/09/14 04:11:47;;;;;;;20.53;10.13;;;;;;;39.64;36.42;100988.91;6158701;23;20443;-78
2022/09/14 04:14:14;;;;;;;20.60;8.57;;;;;;;39.46;36.48;100984.53;6158569;23;20385;-77
2022/09/14 04:16:40;;;;;;;24.13;10.47;;;;;;;39.47;36.44;100988.84;6158550;23;20391;-76
2022/09/14 04:19:07;;;;;;;14.63;8.57;;;;;;;39.32;37.10;100981.91;6158233;23;20451;-75
2022/09/14 04:21:33;;;;;;;17.27;7.43;;;;;;;39.18;37.15;100978.50;6158720;23;20446;-77
2022/09/14 04:23:59;;;;;;;17.77;8.57;;;;;;;39.40;36.47;100989.28;6158679;23;20797;-76
2022/09/14 04:26:28;;;;;;;17.23;7.10;;;;;;;39.57;36.41;100985.84;6158518;23;20387;-76
2022/09/14 04:28:55;;;;;;;15.30;8.10;;;;;;;39.55;36.25;100982.66;6184714;23;20369;-76
2022/09/14 04:31:22;;;;;;;16.00;10.50;;;;;;;39.90;35.46;100986.28;6185209;23;20401;-76
2022/09/14 04:33:50;;;;;;;16.67;9.40;;;;;;;39.54;36.23;100985.69;6158580;23;20380;-76
2022/09/14 04:36:21;;;;;;;19.70;8.53;;;;;;;39.60;36.37;100987.16;6158448;23;20399;-76
2022/09/14 04:38:47;;;;;;;23.73;9.27;;;;;;;39.92;35.32;100986.75;6158800;23;20384;-77
2022/09/14 04:41:17;;;;;;;11.40;7.70;;;;;;;39.92;35.44;100985.97;6184533;23;20364;-75
2022/09/14 04:43:44;;;;;;;11.30;7.13;;;;;;;39.60;36.03;100989.88;6158546;23;20423;-76
2022/09/14 04:46:13;;;;;;;13.50;7.70;;;;;;;39.40;36.45;100993.91;6158281;23;20388;-76
2022/09/14 04:48:40;;;;;;;15.70;6.83;;;;;;;39.39;36.48;100995.84;6158387;23;20479;-76
2022/09/14 04:51:09;;;;;;;10.83;8.10;;;;;;;39.27;36.93;101017.31;6158438;23;20717;-76
2022/09/14 04:53:37;;;;;;;16.37;9.00;;;;;;;38.48;37.86;101015.16;6158354;23;20399;-77
2022/09/14 04:56:05;;;;;;;15.77;9.33;;;;;;;38.98;37.15;101015.09;6158348;23;20388;-77
2022/09/14 04:58:32;;;;;;;12.93;9.10;;;;;;;39.39;36.44;101003.19;6158186;23;20412;-76
2022/09/14 05:01:03;;;;;;;14.50;7.90;;;;;;;39.56;36.14;101003.25;6158366;23;20412;-77
2022/09/14 05:03:29;;;;;;;14.47;9.07;;;;;;;39.31;36.48;101004.75;6157968;23;20440;-76
2022/09/14 05:06:00;;;;;;;13.07;8.43;;;;;;;39.51;36.60;101003.38;6157280;23;20682;-78
2022/09/14 05:08:26;;;;;;;13.90;8.77;;;;;;;38.74;37.78;101003.75;6184766;23;20380;-78
2022/09/14 05:10:55;;;;;;;18.77;9.00;;;;;;;38.66;37.88;101005.25;6158153;23;20418;-76
2022/09/14 05:13:22;;;;;;;12.20;8.23;;;;;;;38.84;37.52;101008.91;6185128;23;20353;-77
2022/09/14 05:15:49;;;;;;;18.07;9.87;;;;;;;38.82;37.81;101016.56;6158132;23;20440;-75
2022/09/14 05:18:16;;;;;;;14.70;9.33;;;;;;;38.99;37.41;101018.59;6158280;23;20390;-76
2022/09/14 05:20:42;;;;;;;12.60;8.47;;;;;;;39.22;37.19;101018.25;6133551;23;20464;-78
2022/09/14 05:23:08;;;;;;;17.57;9.93;;;;;;;39.23;36.91;101028.03;6158138;23;20408;-78
2022/09/14 05:25:34;;;;;;;17.37;9.17;;;;;;;39.03;37.13;101039.34;6158139;23;20384;-76
2022/09/14 05:28:00;;;;;;;16.63;10.43;;;;;;;39.36;36.91;101042.63;6158114;23;20384;-76
2022/09/14 05:30:26;;;;;;;18.20;12.20;;;;;;;39.65;36.38;101049.47;6158193;23;20408;-76
2022/09/14 05:32:52;;;;;;;15.80;9.73;;;;;;;39.93;35.97;101050.03;6157997;23;20408;-75
2022/09/14 05:35:18;;;;;;;21.50;11.93;;;;;;;39.46;37.03;101066.75;6158212;23;20384;-77
2022/09/14 05:37:44;;;;;;;18.00;10.27;;;;;;;39.94;35.93;101066.03;6158102;23;20416;-77
2022/09/14 05:40:11;;;;;;;16.90;10.07;;;;;;;39.72;36.14;101064.19;6157921;23;20435;-78
2022/09/14 05:42:37;;;;;;;15.80;8.60;;;;;;;40.12;35.42;101068.81;6133659;23;20403;-78
2022/09/14 05:45:03;;;;;;;16.57;9.50;;;;;;;39.97;35.71;101072.75;6158147;23;20539;-78
2022/09/14 05:47:30;;;;;;;17.57;9.57;;;;;;;39.55;36.34;101074.16;6185177;23;20415;-77
2022/09/14 05:49:56;;;;;;;19.10;10.73;;;;;;;39.70;36.03;101074.56;6133707;23;20463;-76
2022/09/14 05:52:23;;;;;;;21.40;11.60;;;;;;;39.64;36.32;101078.53;6157906;23;20419;-76
2022/09/14 05:54:49;;;;;;;17.33;10.00;;;;;;;39.42;36.66;101073.13;6157909;23;20388;-76
2022/09/14 05:57:15;;;;;;;14.47;9.10;;;;;;;39.27;36.76;101079.75;6184892;23;20722;-76
2022/09/14 05:59:41;;;;;;;19.73;11.67;;;;;;;39.21;37.32;101079.06;6157872;23;20940;-77
2022/09/14 06:02:09;;;;;;;27.40;10.67;;;;;;;39.56;36.72;101073.84;6184444;23;20438;-78
2022/09/14 06:04:35;;;;;;;17.27;14.13;;;;;;;39.81;36.09;101082.44;6184702;23;20369;-76
2022/09/14 06:07:03;;;;;;;23.00;13.93;;;;;;;39.17;36.93;101086.25;6184302;23;20888;-76
2022/09/14 06:09:29;;;;;;;19.43;16.40;;;;;;;39.71;36.35;101088.94;6157828;23;20368;-76
2022/09/14 06:11:55;;;;;;;21.00;15.53;;;;;;;39.73;35.85;101095.69;6157789;23;20471;-76
2022/09/14 06:14:21;;;;;;;27.13;19.30;;;;;;;39.54;36.16;101103.22;6158075;23;20980;-77
2022/09/14 06:16:47;;;;;;;27.10;16.67;;;;;;;39.33;36.62;101088.56;6157794;23;20948;-76
2022/09/14 06:19:14;;;;;;;28.60;15.50;;;;;;;38.92;37.49;101093.06;6185221;23;20403;-77
2022/09/14 06:21:41;;;;;;;25.00;15.27;;;;;;;38.91;37.31;101105.00;6159033;23;20774;-76
2022/09/14 06:24:09;;;;;;;23.70;15.33;;;;;;;39.28;36.82;101110.41;6159381;23;20450;-77
2022/09/14 06:26:36;;;;;;;29.17;14.83;;;;;;;39.49;36.33;101116.94;6158747;23;20388;-78
2022/09/14 06:29:02;;;;;;;19.87;15.07;;;;;;;39.08;37.45;101120.59;6159004;23;20857;-77
2022/09/14 06:31:29;;;;;;;20.47;14.13;;;;;;;39.63;36.28;101125.81;6158764;23;20426;-77
2022/09/14 06:33:55;;;;;;;23.80;12.60;;;;;;;39.98;35.77;101137.63;6186129;23;20813;-77
2022/09/14 06:36:24;;;;;;;26.43;14.87;;;;;;;39.70;36.38;101134.31;6186136;23;20352;-77
2022/09/14 06:38:51;;;;;;;31.30;19.03;;;;;;;40.23;35.37;101130.69;6158870;23;20380;-76
2022/09/14 06:41:25;;;;;;;26.77;16.90;;;;;;;40.19;35.21;101134.38;6158723;23;20863;-77
2022/09/14 06:43:54;;;;;;;28.73;15.90;;;;;;;40.02;35.68;101143.22;6185737;23;20375;-77
2022/09/14 06:46:26;;;;;;;27.93;16.03;;;;;;;40.08;35.45;101152.84;6185690;23;20375;-77
2022/09/14 06:48:57;;;;;;;23.43;14.70;;;;;;;40.43;34.98;101155.69;6158807;23;20384;-76
2022/09/14 06:51:32;;;;;;;27.37;18.40;;;;;;;40.21;35.55;101159.31;6158971;23;20391;-78
2022/09/14 06:53:59;;;;;;;26.30;15.40;;;;;;;40.53;34.68;101169.03;6158662;23;20392;-77
2022/09/14 06:56:26;;;;;;;33.87;17.30;;;;;;;40.26;35.11;101172.75;6158533;23;20376;-76
2022/09/14 06:58:53;;;;;;;30.07;20.47;;;;;;;39.76;36.02;101173.78;6158777;23;20937;-76
2022/09/14 07:01:20;;;;;;;26.90;14.63;;;;;;;39.88;36.03;101169.69;6158247;23;20534;-77
2022/09/14 07:03:47;;;;;;;18.40;12.13;;;;;;;39.70;36.54;101174.22;6158492;23;20419;-77
2022/09/14 07:06:16;;;;;;;20.43;13.13;;;;;;;39.66;36.00;101178.69;6157898;23;20396;-76
2022/09/14 07:08:42;;;;;;;29.67;15.90;;;;;;;40.41;35.29;101185.13;6158058;23;20394;-76
2022/09/14 07:11:10;;;;;;;27.00;17.13;;;;;;;40.61;34.59;101184.53;6158413;23;20395;-77
2022/09/14 07:13:36;;;;;;;28.00;17.53;;;;;;;40.49;34.94;101192.53;6158613;23;20388;-76
2022/09/14 07:16:03;;;;;;;29.60;18.13;;;;;;;40.55;34.97;101189.34;6158540;23;20392;-76
2022/09/14 07:18:34;;;;;;;26.63;18.77;;;;;;;40.54;35.23;101187.72;6159181;23;20472;-77
2022/09/14 07:21:05;;;;;;;27.70;17.07;;;;;;;40.59;34.70;101186.78;6158918;23;20431;-76
2022/09/14 07:23:34;;;;;;;24.13;14.00;;;;;;;39.99;35.21;101195.47;6159278;23;20380;-75
2022/09/14 07:26:03;;;;;;;25.00;15.07;;;;;;;40.28;34.86;101193.06;6158903;23;20454;-78
2022/09/14 07:28:31;;;;;;;16.80;11.37;;;;;;;40.28;34.88;101189.56;6158525;23;20463;-76
2022/09/14 07:30:57;;;;;;;19.83;13.50;;;;;;;40.60;34.95;101201.97;6185433;23;20440;-79
2022/09/14 07:33:23;;;;;;;19.07;12.20;;;;;;;40.53;34.75;101191.56;6159053;23;20383;-81
2022/09/14 07:35:51;;;;;;;32.70;13.30;;;;;;;40.76;34.56;101197.69;6159066;23;20380;-78
2022/09/14 07:38:18;;;;;;;21.80;12.07;;;;;;;40.51;34.68;101206.59;6185839;23;20360;-81
2022/09/14 07:40:44;;;;;;;22.27;14.20;;;;;;;41.00;33.77;101191.81;6158752;23;20508;-80
2022/09/14 07:43:11;;;;;;;22.53;15.30;;;;;;;40.39;34.81;101196.31;6158766;23;20384;-79
2022/09/14 07:45:38;;;;;;;21.37;16.03;;;;;;;40.35;34.56;101195.34;6158789;23;20392;-80
2022/09/14 07:48:05;;;;;;;23.70;12.63;;;;;;;40.54;34.58;101203.25;6158671;23;20384;-79
2022/09/14 07:50:31;;;;;;;17.40;10.90;;;;;;;40.48;34.08;101207.22;6157763;23;20474;-81
2022/09/14 07:52:57;;;;;;;19.33;11.60;;;;;;;40.34;34.65;101214.69;6158329;23;20845;-80
2022/09/14 07:55:23;;;;;;;18.37;12.90;;;;;;;40.86;34.22;101206.66;6158666;23;20873;-79
2022/09/14 07:57:49;;;;;;;17.07;11.87;;;;;;;41.27;33.64;101211.66;6157868;23;20388;-79
2022/09/14 08:00:16;;;;;;;19.33;11.50;;;;;;;41.66;32.84;101218.84;6157555;23;20455;-79
2022/09/14 08:02:42;;;;;;;23.43;10.93;;;;;;;41.54;32.70;101219.50;6157864;23;20392;-78
2022/09/14 08:05:10;;;;;;;20.03;11.70;;;;;;;41.41;32.74;101222.41;6158163;23;20400;-80
2022/09/14 08:07:36;;;;;;;20.10;10.30;;;;;;;41.89;32.25;101227.63;6158182;23;20390;-78
2022/09/14 08:10:02;;;;;;;26.23;10.60;;;;;;;41.89;32.03;101235.00;6158375;23;20400;-82
2022/09/14 08:12:28;;;;;;;16.63;9.63;;;;;;;41.69;32.15;101237.28;6158728;23;20388;-79
2022/09/14 08:14:54;;;;;;;13.30;8.10;;;;;;;41.57;32.46;101240.66;6159308;23;20380;-79
2022/09/14 08:17:22;;;;;;;13.93;7.53;;;;;;;41.04;33.36;101246.41;6158667;23;20412;-72
2022/09/14 08:19:50;;;;;;;17.73;9.20;;;;;;;41.36;32.87;101238.91;6185024;23;20907;-74
2022/09/14 08:22:16;;;;;;;18.77;9.70;;;;;;;41.60;32.11;101250.91;6158655;23;20839;-74
2022/09/14 08:24:42;;;;;;;14.80;9.67;;;;;;;41.78;32.41;101245.44;6158457;23;20551;-74
2022/09/14 08:27:10;;;;;;;17.13;7.90;;;;;;;41.50;32.53;101250.44;6185268;23;20690;-75
2022/09/14 08:29:36;;;;;;;14.23;10.00;;;;;;;41.73;32.02;101253.75;6158391;23;20396;-73
2022/09/14 08:32:02;;;;;;;26.27;8.57;;;;;;;41.82;32.27;101252.66;6158148;23;20935;-74
2022/09/14 08:34:28;;;;;;;22.40;7.70;;;;;;;41.52;32.57;101256.38;6158574;23;20467;-72
2022/09/14 08:36:54;;;;;;;15.87;9.70;;;;;;;41.91;32.50;101258.06;6185262;23;20365;-69
2022/09/14 08:39:20;;;;;;;12.00;7.67;;;;;;;41.85;32.08;101252.00;6159118;23;20729;-69
2022/09/14 08:41:54;;;;;;;17.17;8.60;;;;;;;42.14;32.07;101255.94;6133757;23;20394;-71
2022/09/14 08:44:38;;;;;;;18.57;9.00;;;;;;;42.50;31.52;101258.19;6158280;23;20446;-71
2022/09/14 08:47:15;;;;;;;17.53;8.60;;;;;;;42.42;31.37;101256.31;6158243;23;20786;-71
2022/09/14 08:49:56;;;;;;;20.53;8.27;;;;;;;41.75;32.13;101265.19;6158434;23;20380;-70
2022/09/14 08:52:39;;;;;;;11.23;7.93;;;;;;;42.07;32.19;101252.91;6158043;23;20849;-70
2022/09/14 08:55:36;;;;;;;22.97;8.33;;;;;;;42.46;31.21;101256.44;6183070;23;20852;-71
2022/09/14 08:58:21;;;;;;;13.70;8.03;;;;;;;42.60;31.29;101263.31;6158365;23;20384;-70
2022/09/14 09:01:16;;;;;;;12.80;8.47;;;;;;;42.66;31.31;101261.19;6157820;23;20683;-70
2022/09/14 09:04:22;;;;;;;11.10;7.40;;;;;;;42.35;31.42;101251.38;6106073;23;20424;-70
2022/09/14 09:06:55;;;;;;;18.40;8.03;;;;;;;42.51;31.34;101259.00;6112528;23;20383;-70
2022/09/14 09:09:39;;;;;;;13.57;8.60;;;;;;;42.51;31.23;101251.63;6158142;23;20384;-79
2022/09/14 09:12:11;;;;;;;16.50;9.27;;;;;;;42.46;31.31;101256.44;6158113;23;20419;-78
2022/09/14 09:14:50;;;;;;;12.37;8.83;;;;;;;42.50;31.27;101268.31;6157721;23;20914;-79
2022/09/14 09:17:24;;;;;;;14.33;9.43;;;;;;;42.40;31.38;101267.53;6158368;23;20422;-78
2022/09/14 09:19:58;;;;;;;13.00;7.47;;;;;;;42.44;31.31;101264.97;6157690;23;20428;-77
2022/09/14 09:22:29;;;;;;;20.07;8.87;;;;;;;42.44;31.24;101261.44;6182136;23;20375;-79
2022/09/14 09:24:57;;;;;;;13.80;7.93;;;;;;;42.65;31.06;101265.84;6184243;23;20361;-80
2022/09/14 09:27:25;;;;;;;14.70;8.43;;;;;;;42.51;31.39;101264.47;6157237;23;20482;-78
2022/09/14 09:29:51;;;;;;;19.93;8.77;;;;;;;42.26;31.79;101266.19;6157016;23;20419;-78
2022/09/14 09:32:23;;;;;;;16.10;9.70;;;;;;;42.30;31.64;101264.41;6157196;23;20419;-79
2022/09/14 09:34:50;;;;;;;14.23;8.70;;;;;;;42.39;31.91;101257.78;6157150;23;20733;-82
2022/09/14 09:37:19;;;;;;;18.73;9.40;;;;;;;42.15;32.15;101257.53;6157251;23;20412;-80
2022/09/14 09:39:46;;;;;;;14.47;9.50;;;;;;;42.17;32.20;101251.75;6157031;23;20516;-80
2022/09/14 09:42:23;;;;;;;15.40;9.80;;;;;;;42.30;31.78;101243.38;6156970;23;20420;-79
2022/09/14 09:45:01;;;;;;;13.47;8.83;;;;;;;42.28;31.65;101231.19;6157403;23;20379;-80
2022/09/14 09:47:38;;;;;;;15.57;8.53;;;;;;;42.54;31.98;101225.59;6184589;23;20896;-83
2022/09/14 09:50:16;;;;;;;18.40;10.73;;;;;;;42.34;32.18;101221.69;6133803;23;20387;-79
2022/09/14 09:52:51;;;;;;;19.73;12.13;;;;;;;42.27;31.85;101226.88;6157096;23;20422;-80
2022/09/14 09:55:20;;;;;;;20.90;10.23;;;;;;;42.43;31.74;101227.13;6134650;23;20390;-78
2022/09/14 09:57:46;;;;;;;18.97;11.53;;;;;;;42.22;32.07;101219.66;6156735;23;20392;-80
2022/09/14 10:00:31;;;;;;;14.70;9.63;;;;;;;42.21;32.08;101234.44;6185320;23;20446;-79
2022/09/14 10:02:57;;;;;;;27.87;11.40;;;;;;;42.35;32.06;101237.72;6185527;23;20388;-80
2022/09/14 10:05:33;;;;;;;18.80;10.60;;;;;;;42.27;31.95;101233.13;6159228;23;20853;-79
2022/09/14 10:08:02;;;;;;;16.37;10.13;;;;;;;42.37;32.17;101238.22;6159132;23;20415;-79
2022/09/14 10:10:34;;;;;;;15.87;10.60;;;;;;;42.42;31.71;101241.88;6158963;23;20379;-79
2022/09/14 10:13:03;;;;;;;16.53;9.63;;;;;;;42.40;31.97;101234.81;6158953;23;20383;-80
2022/09/14 10:15:31;;;;;;;15.50;10.30;;;;;;;42.36;31.78;101244.00;6159042;23;20408;-80
2022/09/14 10:18:12;;;;;;;19.50;9.70;;;;;;;42.28;31.72;101240.16;6158801;23;20372;-80
2022/09/14 10:21:02;;;;;;;15.40;11.17;;;;;;;42.67;31.38;101235.53;6159043;23;20439;-79
2022/09/14 10:23:32;;;;;;;20.60;10.13;;;;;;;42.18;32.36;101229.66;6158933;23;20392;-80
2022/09/14 10:26:13;;;;;;;19.80;12.57;;;;;;;42.52;31.38;101236.03;6159475;23;20852;-77
2022/09/14 10:28:44;;;;;;;26.03;10.90;;;;;;;42.68;31.38;101231.66;6159847;23;20386;-79
2022/09/14 10:31:13;;;;;;;18.67;8.53;;;;;;;42.55;31.06;101243.59;6159378;23;20732;-80
2022/09/14 10:33:42;;;;;;;24.33;8.50;;;;;;;42.50;31.05;101241.03;6159659;23;20415;-82
2022/09/14 10:36:22;;;;;;;22.40;10.43;;;;;;;42.75;31.40;101236.59;6159499;23;20377;-76
2022/09/14 10:39:22;;;;;;;18.43;9.63;;;;;;;42.88;30.94;101225.41;6159045;23;20376;-78
2022/09/14 10:41:55;;;;;;;11.87;7.43;;;;;;;42.94;30.99;101234.19;6159404;23;20384;-78
2022/09/14 10:44:28;;;;;;;13.40;8.47;;;;;;;42.78;30.93;101230.44;6158507;23;20376;-77
2022/09/14 10:47:09;;;;;;;20.67;10.83;;;;;;;42.83;30.97;101230.25;6156430;23;20380;-78
2022/09/14 10:49:50;;;;;;;18.63;10.23;;;;;;;42.96;30.78;101234.66;6158135;23;20430;-78
2022/09/14 10:52:46;;;;;;;18.23;9.07;;;;;;;42.69;31.60;101224.28;6158711;23;20419;-77
2022/09/14 10:55:41;;;;;;;15.00;8.83;;;;;;;42.69;31.06;101227.00;6158554;23;20475;-77
2022/09/14 10:58:26;;;;;;;14.27;9.93;;;;;;;42.34;31.93;101232.59;6158040;23;20380;-78
2022/09/14 11:01:13;;;;;;;19.20;9.13;;;;;;;42.32;31.72;101213.06;6157991;23;20455;-78
2022/09/14 11:04:07;;;;;;;17.80;10.07;;;;;;;42.66;31.25;101212.06;6184633;23;20388;-76
2022/09/14 11:06:53;;;;;;;24.17;9.47;;;;;;;42.50;31.38;101209.13;6157867;23;20855;-77
2022/09/14 11:09:31;;;;;;;14.97;11.80;;;;;;;42.39;31.42;101203.22;6158531;23;20380;-77
2022/09/14 11:12:06;;;;;;;15.03;9.10;;;;;;;42.60;31.17;101207.94;6158391;23;20818;-77
2022/09/14 11:14:36;;;;;;;20.60;10.70;;;;;;;42.78;30.83;101197.72;6158340;23;20503;-75
2022/09/14 11:17:22;;;;;;;18.37;10.73;;;;;;;42.40;31.06;101191.19;6158194;23;20392;-75
2022/09/14 11:19:59;;;;;;;14.40;8.90;;;;;;;42.28;31.39;101190.31;6158170;23;20436;-76
2022/09/14 11:22:38;;;;;;;18.60;9.77;;;;;;;42.56;31.39;101185.16;6158256;23;20423;-76
2022/09/14 11:25:18;;;;;;;14.17;8.47;;;;;;;42.57;30.95;101165.78;6158233;23;20879;-77
2022/09/14 11:27:56;;;;;;;15.10;8.97;;;;;;;42.39;31.42;101166.97;6184442;23;20356;-78
2022/09/14 11:30:32;;;;;;;18.17;9.53;;;;;;;42.31;31.41;101146.81;6157718;23;20735;-78
2022/09/14 11:33:12;;;;;;;16.63;8.87;;;;;;;42.53;31.16;101140.25;6157961;23;20388;-80